עמוד ראשי
METAR-TAF:

METAR-TAF

שדות תעופה :

סנטיאגו דה צ'ילה, צ'ילה

קו רוחב: 33-27-23S, קו אורך: 070-32-48W, גובה: 646מטר

תצפית מזג אוויר נוכחית

הדו"ח נערך לפני 12 שעות ו 30דקות, בשעה 22:00 UTC
רוח 3קשר מכיוון דרום-מערב
טמפרטורת 9 צלסיוס
לחות 76%
לחץ 1019 hPa
ראות: 7000מטר
מעונן בגובה 2000רגל

METAR: SCTB 232200Z 23003KT 7000 OVC020 09/05 Q1019

זמן: 06:30 (10:30 UTC)


TAF: חסר

תצפיות ותחזיות מזג אוויר לגבי יותר מ- 4,000 שדות תעופה ברחבי העולם. דוחות METAR ו- TAF.

התחנות הזמינות מסומנות בנקודות צהובות ואדומות על גבי המפה.

העבר את העכבר לנקודה הצבעונית על מנת לראות את שם התחנה.

לאחר מכן, לחץ כדי לראות את תוכן ואת תחזיות מזג האוויר.

כדי לשנות את המפה: לחץ על הכפתורים הירוקים עם הפלוס השחור כדי להתקרב; על הכפתור הירוק עם המקף כדי להתרחק; או בחיצים הירוקים למפות סמוכות.


METAR-TAF: